Time;durP1;ratioP1;P1;durP2;ratioP2;P2;SDS_P1;SDS_P2;PMS_P1;PMS_P2;Temp;Humidity;BMP_temperature;BMP_pressure;BME280_temperature;BME280_humidity;BME280_pressure;Samples;Min_cycle;Max_cycle;Signal;HPM_P1;HPM_P2
2021/10/06 00:02:06;;;;;;;3.72;0.88;;;10.00;99.90;;;;;;4936159;29;20031;-93
2021/10/06 00:04:32;;;;;;;6.68;1.02;;;9.90;99.90;;;;;;4936549;29;20038;-91
2021/10/06 00:06:58;;;;;;;3.45;0.60;;;9.90;99.90;;;;;;4936265;29;20043;-92
2021/10/06 00:09:23;;;;;;;3.88;0.70;;;9.90;99.90;;;;;;4936502;29;20027;-91
2021/10/06 00:11:49;;;;;;;4.75;0.90;;;9.80;99.90;;;;;;4952437;29;20032;-91
2021/10/06 00:14:15;;;;;;;2.55;1.00;;;9.80;99.90;;;;;;4935736;29;20036;-91
2021/10/06 00:16:41;;;;;;;2.08;0.52;;;9.80;99.90;;;;;;4936448;29;20030;-91
2021/10/06 00:19:07;;;;;;;2.45;0.65;;;9.70;99.90;;;;;;4935887;29;20047;-92
2021/10/06 00:21:34;;;;;;;4.90;0.65;;;9.70;99.90;;;;;;4935517;29;20507;-92
2021/10/06 00:23:59;;;;;;;1.25;0.40;;;9.70;99.90;;;;;;4935365;29;20023;-91
2021/10/06 00:26:25;;;;;;;4.18;0.93;;;9.60;99.90;;;;;;4935554;29;20038;-91
2021/10/06 00:28:51;;;;;;;2.53;0.55;;;9.60;99.90;;;;;;4935107;29;20039;-93
2021/10/06 00:31:17;;;;;;;7.72;0.88;;;9.60;99.90;;;;;;4935709;29;20031;-93
2021/10/06 00:33:43;;;;;;;8.20;0.82;;;9.50;99.90;;;;;;4935917;29;20044;-92
2021/10/06 00:36:10;;;;;;;3.80;0.60;;;9.50;99.90;;;;;;4935748;29;20024;-93
2021/10/06 00:38:35;;;;;;;2.55;0.50;;;9.50;99.90;;;;;;4934867;29;20039;-91
2021/10/06 00:41:04;;;;;;;3.80;0.60;;;9.50;99.90;;;;;;4935650;29;20477;-92
2021/10/06 00:43:30;;;;;;;2.55;0.65;;;9.40;99.90;;;;;;4935718;29;20119;-92
2021/10/06 00:45:56;;;;;;;4.22;0.60;;;9.40;99.90;;;;;;4935934;29;20114;-91
2021/10/06 00:48:22;;;;;;;2.63;0.65;;;9.40;99.90;;;;;;4935905;29;20036;-91
2021/10/06 00:50:47;;;;;;;2.63;0.73;;;9.40;99.90;;;;;;4935442;29;20111;-93
2021/10/06 00:53:13;;;;;;;6.05;0.73;;;9.30;99.90;;;;;;4935007;29;20062;-92
2021/10/06 00:55:45;;;;;;;5.20;0.60;;;9.20;99.90;;;;;;4935525;29;20036;-90
2021/10/06 00:58:11;;;;;;;4.57;0.70;;;9.30;99.90;;;;;;4935370;29;20024;-91
2021/10/06 01:00:36;;;;;;;6.00;0.63;;;9.20;99.90;;;;;;4935194;29;20026;-91
2021/10/06 01:03:02;;;;;;;3.75;0.55;;;9.20;99.90;;;;;;4951248;29;20099;-91
2021/10/06 01:05:30;;;;;;;8.25;1.85;;;9.20;99.90;;;;;;4935555;29;20474;-91
2021/10/06 01:07:56;;;;;;;2.60;0.43;;;9.10;99.90;;;;;;4934838;29;20174;-91
2021/10/06 01:10:22;;;;;;;3.58;0.55;;;9.10;99.90;;;;;;4935157;29;20087;-91
2021/10/06 01:12:48;;;;;;;1.65;0.43;;;9.10;99.90;;;;;;4934860;29;20039;-91
2021/10/06 01:15:16;;;;;;;3.90;0.30;;;9.10;99.90;;;;;;4934728;29;20027;-91
2021/10/06 01:17:45;;;;;;;0.95;0.13;;;9.10;99.90;;;;;;4934897;29;20028;-92
2021/10/06 01:20:11;;;;;;;2.30;0.40;;;9.10;99.90;;;;;;4951045;28;20688;-89
2021/10/06 01:22:37;;;;;;;2.85;0.47;;;9.10;99.90;;;;;;4935168;29;20038;-91
2021/10/06 01:25:05;;;;;;;2.63;0.57;;;9.00;99.90;;;;;;4935004;29;20027;-91
2021/10/06 01:27:30;;;;;;;0.93;0.30;;;9.10;99.90;;;;;;4934928;29;20043;-90
2021/10/06 01:29:56;;;;;;;4.10;0.40;;;9.00;99.90;;;;;;4951726;29;20027;-91
2021/10/06 01:32:22;;;;;;;3.20;0.43;;;9.00;99.90;;;;;;4939232;29;20059;-91
2021/10/06 01:35:00;;;;;;;4.57;0.52;;;9.00;99.90;;;;;;4949399;29;20031;-90
2021/10/06 01:37:27;;;;;;;0.77;0.35;;;9.00;99.90;;;;;;4949482;28;20051;-89
2021/10/06 01:39:53;;;;;;;1.30;0.35;;;9.00;99.90;;;;;;4934860;29;20500;-91
2021/10/06 01:42:20;;;;;;;2.00;0.30;;;8.90;99.90;;;;;;4935023;29;20031;-90
2021/10/06 01:44:48;;;;;;;2.38;0.40;;;8.90;99.90;;;;;;4950752;29;20042;-91
2021/10/06 01:47:19;;;;;;;3.50;0.43;;;8.80;99.90;;;;;;4934714;29;20027;-92
2021/10/06 01:49:46;;;;;;;1.80;0.30;;;8.80;99.90;;;;;;4934081;29;20035;-92
2021/10/06 01:52:28;;;;;;;0.73;0.55;;;8.80;99.90;;;;;;4934605;29;20408;-91
2021/10/06 01:54:56;;;;;;;2.90;0.30;;;8.80;99.90;;;;;;4934903;29;20030;-91
2021/10/06 01:57:22;;;;;;;3.15;0.40;;;8.80;99.90;;;;;;4934300;29;20048;-89
2021/10/06 01:59:48;;;;;;;1.60;0.35;;;8.80;99.90;;;;;;4934355;29;20039;-91
2021/10/06 02:02:16;;;;;;;1.85;0.30;;;8.80;99.90;;;;;;4934917;29;20087;-91
2021/10/06 02:04:43;;;;;;;3.90;0.50;;;8.70;99.90;;;;;;4934820;29;20032;-90
2021/10/06 02:07:08;;;;;;;5.30;0.50;;;8.70;99.90;;;;;;4950246;28;20044;-91
2021/10/06 02:09:34;;;;;;;1.83;0.38;;;8.70;99.90;;;;;;4934077;29;20028;-90
2021/10/06 02:12:01;;;;;;;0.93;0.22;;;8.70;99.90;;;;;;4934181;29;20032;-91
2021/10/06 02:14:27;;;;;;;1.77;0.38;;;8.70;99.90;;;;;;4933767;29;20040;-90
2021/10/06 02:16:52;;;;;;;2.17;0.30;;;8.60;99.90;;;;;;4933997;29;20027;-91
2021/10/06 02:19:18;;;;;;;3.83;0.30;;;8.70;99.90;;;;;;4933999;29;20122;-91
2021/10/06 02:21:48;;;;;;;2.15;0.32;;;8.60;99.90;;;;;;4934534;29;20030;-91
2021/10/06 02:24:14;;;;;;;2.33;0.45;;;8.60;99.90;;;;;;4935407;29;20027;-92
2021/10/06 02:26:40;;;;;;;4.90;0.63;;;8.60;99.90;;;;;;4933949;29;20482;-90
2021/10/06 02:29:06;;;;;;;5.70;1.35;;;8.60;99.90;;;;;;4934201;29;20860;-91
2021/10/06 02:31:31;;;;;;;4.55;0.50;;;8.60;99.90;;;;;;4934033;29;20398;-91
2021/10/06 02:33:57;;;;;;;3.85;0.47;;;8.60;99.90;;;;;;4934553;29;20560;-90
2021/10/06 02:36:28;;;;;;;1.23;0.80;;;8.60;99.90;;;;;;4934628;29;20028;-92
2021/10/06 02:39:03;;;;;;;2.33;0.30;;;8.50;99.90;;;;;;4918485;29;20042;-92
2021/10/06 02:41:29;;;;;;;2.60;0.43;;;8.50;99.90;;;;;;4949977;29;20028;-92
2021/10/06 02:43:55;;;;;;;1.85;0.30;;;8.50;99.90;;;;;;4934215;29;20032;-91
2021/10/06 02:46:21;;;;;;;1.55;0.30;;;8.50;99.90;;;;;;4934275;29;20607;-92
2021/10/06 02:48:46;;;;;;;0.85;0.30;;;8.50;99.90;;;;;;4934290;29;20062;-91
2021/10/06 02:51:15;;;;;;;1.85;0.28;;;8.50;99.90;;;;;;4934153;29;20023;-92
2021/10/06 02:53:41;;;;;;;1.55;0.30;;;8.50;99.90;;;;;;4934338;29;20406;-90
2021/10/06 02:56:06;;;;;;;2.22;0.30;;;8.50;99.90;;;;;;4933795;29;20031;-90
2021/10/06 02:58:32;;;;;;;3.40;0.40;;;8.50;99.90;;;;;;4934030;29;20489;-90
2021/10/06 03:00:58;;;;;;;2.17;0.50;;;8.50;99.90;;;;;;4935439;29;20030;-92
2021/10/06 03:03:23;;;;;;;7.20;0.52;;;8.50;99.90;;;;;;4937437;29;20024;-91
2021/10/06 03:05:49;;;;;;;2.67;0.30;;;8.40;99.90;;;;;;4937547;29;20028;-91
2021/10/06 03:08:15;;;;;;;1.05;0.30;;;8.40;99.90;;;;;;4935182;29;20054;-91
2021/10/06 03:10:41;;;;;;;2.88;0.30;;;8.50;99.90;;;;;;4953547;28;20032;-91
2021/10/06 03:13:06;;;;;;;1.48;0.40;;;8.50;99.90;;;;;;4952980;29;20134;-92
2021/10/06 03:15:32;;;;;;;0.32;0.20;;;8.50;99.90;;;;;;4937028;29;20087;-90
2021/10/06 03:17:58;;;;;;;1.58;0.10;;;8.50;99.90;;;;;;4937303;29;20035;-92
2021/10/06 03:20:24;;;;;;;2.45;0.50;;;8.50;99.90;;;;;;4937108;29;20655;-91
2021/10/06 03:22:49;;;;;;;0.95;0.20;;;8.50;99.90;;;;;;4938087;29;20489;-91
2021/10/06 03:25:15;;;;;;;2.95;0.40;;;8.50;99.90;;;;;;4944830;29;20091;-92
2021/10/06 03:27:41;;;;;;;1.85;0.40;;;8.60;99.90;;;;;;4966007;28;20035;-91
2021/10/06 03:30:08;;;;;;;0.95;0.40;;;8.60;99.90;;;;;;4942516;29;20500;-91
2021/10/06 03:32:34;;;;;;;1.77;0.30;;;8.60;99.90;;;;;;4936827;29;20031;-91
2021/10/06 03:35:02;;;;;;;1.38;0.20;;;8.60;99.90;;;;;;4936792;29;20105;-92
2021/10/06 03:37:28;;;;;;;2.35;0.30;;;8.60;99.90;;;;;;4937168;29;20126;-90
2021/10/06 03:39:56;;;;;;;1.15;0.30;;;8.60;99.90;;;;;;4936599;29;20063;-92
2021/10/06 03:42:22;;;;;;;2.58;0.30;;;8.60;99.90;;;;;;4937069;29;20134;-93
2021/10/06 03:44:50;;;;;;;5.22;0.20;;;8.60;99.90;;;;;;4936757;29;20184;-92
2021/10/06 03:47:16;;;;;;;2.05;0.25;;;8.60;99.90;;;;;;4936821;29;20039;-90
2021/10/06 03:49:41;;;;;;;1.40;0.88;;;8.50;99.90;;;;;;4937064;29;20032;-89
2021/10/06 03:52:07;;;;;;;2.42;0.32;;;8.50;99.90;;;;;;4936413;29;20035;-91
2021/10/06 03:54:33;;;;;;;0.45;0.20;;;8.60;99.90;;;;;;4936108;29;20494;-92
2021/10/06 03:56:58;;;;;;;0.68;0.20;;;8.50;99.90;;;;;;4936165;29;20031;-92
2021/10/06 03:59:24;;;;;;;1.75;0.30;;;8.50;99.90;;;;;;4936012;29;20401;-91
2021/10/06 04:01:50;;;;;;;0.98;0.30;;;8.50;99.90;;;;;;4935604;29;20460;-89
2021/10/06 04:04:15;;;;;;;3.58;0.32;;;8.50;99.90;;;;;;4935702;29;20024;-91
2021/10/06 04:06:41;;;;;;;1.42;0.28;;;8.50;99.90;;;;;;4935603;29;20058;-91
2021/10/06 04:09:06;;;;;;;5.22;0.30;;;8.50;99.90;;;;;;4935365;29;20052;-92
2021/10/06 04:11:32;;;;;;;3.65;0.28;;;8.50;99.90;;;;;;4935487;29;20083;-92
2021/10/06 07:51:14;;;;;;;1.10;0.20;;;8.10;99.90;;;;;;4981884;23;20122;-90
2021/10/06 07:53:40;;;;;;;1.55;0.40;;;8.20;99.90;;;;;;4911170;29;20539;-90
2021/10/06 07:56:06;;;;;;;0.90;0.40;;;8.20;99.90;;;;;;4928901;29;20104;-91
2021/10/06 07:58:31;;;;;;;1.48;0.40;;;8.30;99.90;;;;;;4923341;29;20024;-90
2021/10/06 08:00:57;;;;;;;2.50;0.40;;;8.40;99.90;;;;;;4923127;29;20024;-89
2021/10/06 08:03:23;;;;;;;1.90;0.50;;;8.40;99.90;;;;;;4924191;29;20027;-92
2021/10/06 08:05:49;;;;;;;3.70;0.88;;;8.50;99.90;;;;;;4922552;29;20027;-91
2021/10/06 08:08:15;;;;;;;1.77;0.60;;;8.50;99.90;;;;;;4920629;29;20024;-91
2021/10/06 08:10:40;;;;;;;3.78;0.80;;;8.60;99.90;;;;;;4918946;29;20099;-90
2021/10/06 08:13:06;;;;;;;2.90;1.10;;;8.60;99.90;;;;;;4918984;29;20115;-91
2021/10/06 08:15:34;;;;;;;2.47;0.90;;;8.70;99.90;;;;;;4919198;29;20466;-90
2021/10/06 08:18:00;;;;;;;3.17;0.57;;;8.70;99.90;;;;;;4919593;29;20035;-90
2021/10/06 08:20:27;;;;;;;1.17;0.63;;;8.80;99.90;;;;;;4916141;29;20027;-90
2021/10/06 08:22:52;;;;;;;0.73;0.45;;;8.90;99.90;;;;;;4919614;29;20094;-91
2021/10/06 09:50:51;;;;;;;0.30;0.30;;;12.60;99.90;;;;;;4969674;23;20059;-91
2021/10/06 09:53:19;;;;;;;1.98;0.30;;;13.00;99.90;;;;;;4935708;29;20047;-92
2021/10/06 09:55:52;;;;;;;0.50;0.10;;;13.30;99.90;;;;;;4920461;29;20034;-94
2021/10/06 09:58:19;;;;;;;0.70;0.20;;;13.50;99.90;;;;;;4914342;29;20024;-93
2021/10/06 10:00:48;;;;;;;0.40;0.30;;;13.70;98.80;;;;;;4911498;29;20071;-92
2021/10/06 10:03:14;;;;;;;1.20;0.20;;;13.80;98.00;;;;;;4901670;29;20028;-91
2021/10/06 10:05:40;;;;;;;2.33;0.32;;;14.10;97.80;;;;;;4900157;29;20056;-91
2021/10/06 10:08:08;;;;;;;0.63;0.30;;;14.40;97.40;;;;;;4901565;29;20028;-91
2021/10/06 10:10:36;;;;;;;0.98;0.30;;;14.60;96.30;;;;;;4900657;29;20021;-92
2021/10/06 10:13:03;;;;;;;1.85;0.30;;;14.80;95.30;;;;;;4903713;29;20046;-92
2021/10/06 10:15:29;;;;;;;1.35;0.50;;;15.00;94.70;;;;;;4919367;29;20032;-92
2021/10/06 10:18:00;;;;;;;0.73;0.38;;;15.10;93.60;;;;;;4936597;29;20509;-92
2021/10/06 10:20:31;;;;;;;0.88;0.45;;;15.10;92.80;;;;;;4919841;29;20052;-91
2021/10/06 10:22:57;;;;;;;;;;;15.30;92.60;;;;;;4920018;29;20055;-92
2021/10/06 10:25:28;;;;;;;1.88;0.30;;;15.50;92.50;;;;;;4919709;29;19914;-92
2021/10/06 10:28:23;;;;;;;0.45;0.40;;;15.90;92.30;;;;;;4922605;29;20055;-92
2021/10/06 10:31:08;;;;;;;3.70;0.52;;;16.10;90.70;;;;;;4924444;29;20019;-92
2021/10/06 10:34:00;;;;;;;0.43;0.40;;;16.30;90.20;;;;;;4939516;29;20044;-93
2021/10/06 10:36:44;;;;;;;2.88;0.40;;;16.50;89.30;;;;;;4927026;29;20031;-94
2021/10/06 10:39:48;;;;;;;;;;;;;;;;;;;;;
2021/10/06 10:42:14;;;;;;;2.15;0.38;;;16.90;85.80;;;;;;4932660;29;20103;-93
2021/10/06 10:44:46;;;;;;;1.77;0.50;;;17.00;85.10;;;;;;4947862;29;20055;-91
2021/10/06 11:49:11;;;;;;;1.80;0.50;;;15.40;81.30;;;;;;4971976;23;20588;-92
2021/10/06 11:51:49;;;;;;;0.82;0.60;;;15.90;81.00;;;;;;4938886;29;20121;-91
2021/10/06 11:54:18;;;;;;;3.00;0.40;;;16.30;80.40;;;;;;4938628;29;20094;-92
2021/10/06 11:56:52;;;;;;;3.20;0.50;;;16.80;79.60;;;;;;4938965;29;20027;-92
2021/10/06 11:59:25;;;;;;;1.50;0.50;;;17.30;77.60;;;;;;4941776;29;20043;-92
2021/10/06 12:01:54;;;;;;;6.20;0.50;;;17.60;76.50;;;;;;4942335;29;20027;-94
2021/10/06 12:04:42;;;;;;;1.50;0.40;;;17.80;73.40;;;;;;4946412;29;20031;-92
2021/10/06 12:07:14;;;;;;;1.67;0.40;;;17.90;71.30;;;;;;4940567;29;20024;-92
2021/10/06 12:09:48;;;;;;;0.98;0.30;;;18.00;70.50;;;;;;4941668;29;20027;-94
2021/10/06 12:12:22;;;;;;;1.42;0.55;;;18.20;70.50;;;;;;4944500;29;20514;-93
2021/10/06 12:15:06;;;;;;;3.00;0.32;;;18.50;69.20;;;;;;4941208;29;20043;-94
2021/10/06 18:16:38;;;;;;;6.53;1.10;;;14.60;94.10;;;;;;5850077;23;20171;-92
2021/10/06 18:19:04;;;;;;;5.00;1.00;;;14.60;94.30;;;;;;4936796;29;20059;-95
2021/10/06 18:21:30;;;;;;;5.28;0.93;;;14.60;94.60;;;;;;4923418;29;20024;-92
2021/10/06 18:23:56;;;;;;;8.35;1.48;;;14.60;94.80;;;;;;4940176;29;20047;-91
2021/10/06 18:26:21;;;;;;;6.53;1.30;;;14.50;95.00;;;;;;4924588;29;20028;-91
2021/10/06 18:28:47;;;;;;;5.18;1.70;;;14.50;95.10;;;;;;4919066;29;20035;-91
2021/10/06 18:31:14;;;;;;;6.20;1.40;;;14.40;95.20;;;;;;4928397;29;20458;-91
2021/10/06 18:33:41;;;;;;;7.47;1.38;;;14.30;95.40;;;;;;4958039;29;20031;-91
2021/10/06 18:36:07;;;;;;;6.75;1.80;;;14.30;95.80;;;;;;4945177;29;20371;-92
2021/10/06 18:38:35;;;;;;;4.53;1.08;;;14.30;96.20;;;;;;4913976;29;20481;-93
2021/10/06 18:41:03;;;;;;;7.55;1.50;;;14.30;96.50;;;;;;4905446;29;20052;-93
2021/10/06 18:43:29;;;;;;;4.45;0.95;;;14.30;96.70;;;;;;4918752;29;20029;-93
2021/10/06 18:45:56;;;;;;;4.70;1.40;;;14.30;96.80;;;;;;4899519;29;20029;-94
2021/10/06 18:48:22;;;;;;;5.68;1.52;;;14.20;97.10;;;;;;4903672;29;20036;-93
2021/10/06 18:50:48;;;;;;;7.63;1.35;;;14.30;97.30;;;;;;4901659;29;20039;-91
2021/10/06 18:53:13;;;;;;;4.85;1.30;;;14.30;97.50;;;;;;4909562;29;20040;-91
2021/10/06 18:55:39;;;;;;;4.40;1.00;;;14.20;97.60;;;;;;4913903;29;20351;-92
2021/10/06 18:58:05;;;;;;;3.90;1.38;;;14.20;97.80;;;;;;4913630;29;20104;-92
2021/10/06 19:00:31;;;;;;;5.43;1.30;;;14.20;98.00;;;;;;4902805;29;20032;-92
2021/10/06 19:02:56;;;;;;;8.52;1.50;;;14.20;98.10;;;;;;4903564;29;20107;-93
2021/10/06 19:05:25;;;;;;;8.20;1.80;;;14.20;98.30;;;;;;4912713;29;20032;-92
2021/10/06 19:07:51;;;;;;;7.00;1.33;;;14.10;98.10;;;;;;4918495;29;20032;-92
2021/10/06 19:10:18;;;;;;;9.32;3.25;;;14.10;98.20;;;;;;4921214;29;20031;-92
2021/10/06 19:12:44;;;;;;;7.95;1.60;;;14.00;98.40;;;;;;4899675;29;20044;-91
2021/10/06 19:15:11;;;;;;;7.65;1.42;;;14.00;98.50;;;;;;4912288;29;20072;-91
2021/10/06 19:17:40;;;;;;;10.82;3.80;;;14.00;98.60;;;;;;4913193;29;20056;-92
2021/10/06 19:20:08;;;;;;;6.13;1.65;;;14.00;98.80;;;;;;4916344;29;20036;-92
2021/10/06 19:22:34;;;;;;;3.10;1.40;;;14.00;98.90;;;;;;4912338;29;20040;-91
2021/10/06 19:25:00;;;;;;;7.72;1.48;;;14.00;99.00;;;;;;4918190;29;20032;-93
2021/10/06 19:27:26;;;;;;;4.10;1.50;;;14.00;99.10;;;;;;4913392;29;20482;-91
2021/10/06 19:29:51;;;;;;;6.10;1.35;;;13.90;99.30;;;;;;4896001;29;20032;-92
2021/10/06 19:32:17;;;;;;;7.22;1.42;;;14.00;99.40;;;;;;4913612;29;20028;-92
2021/10/06 19:34:43;;;;;;;6.95;1.52;;;13.90;99.50;;;;;;4912796;29;20099;-93
2021/10/06 19:37:11;;;;;;;5.05;1.48;;;14.00;99.60;;;;;;4917295;29;20072;-92
2021/10/06 19:39:39;;;;;;;6.07;1.80;;;13.90;99.70;;;;;;4919094;29;20032;-93
2021/10/06 19:42:06;;;;;;;6.60;2.00;;;13.90;99.80;;;;;;4902167;29;20406;-92
2021/10/06 19:44:32;;;;;;;3.95;1.58;;;13.80;99.70;;;;;;4901841;29;20055;-93
2021/10/06 19:46:59;;;;;;;8.15;2.42;;;13.80;99.90;;;;;;4897661;29;20039;-93
2021/10/06 19:49:27;;;;;;;5.82;1.77;;;13.80;99.90;;;;;;4917355;29;20020;-93
2021/10/06 19:51:56;;;;;;;4.78;1.52;;;13.70;99.90;;;;;;4898488;29;20024;-94
2021/10/06 19:54:22;;;;;;;8.15;1.50;;;13.70;99.90;;;;;;4910947;29;20040;-92
2021/10/06 19:56:50;;;;;;;5.55;1.90;;;13.70;99.90;;;;;;4911319;29;20502;-91
2021/10/06 19:59:16;;;;;;;5.40;1.38;;;13.70;99.90;;;;;;4898292;29;20092;-92
2021/10/06 20:01:42;;;;;;;6.65;1.55;;;13.70;99.90;;;;;;4898661;29;20281;-92
2021/10/06 20:04:09;;;;;;;5.22;1.52;;;13.70;99.90;;;;;;4896408;29;20032;-92
2021/10/06 21:03:42;;;;;;;7.13;1.55;;;13.40;99.90;;;;;;5778077;23;20043;-91
2021/10/06 21:06:08;;;;;;;8.00;1.70;;;13.30;99.90;;;;;;4919211;29;20063;-91
2021/10/06 21:08:33;;;;;;;10.85;1.95;;;13.30;99.90;;;;;;4914093;29;20044;-92
2021/10/06 21:10:59;;;;;;;7.18;1.77;;;13.20;99.90;;;;;;4938299;29;20163;-91
2021/10/06 21:13:25;;;;;;;10.02;2.00;;;13.20;99.90;;;;;;4906056;29;20036;-92
2021/10/06 21:15:51;;;;;;;6.05;1.33;;;13.20;99.90;;;;;;4919685;29;20545;-91
2021/10/06 21:18:17;;;;;;;10.65;1.80;;;13.20;99.90;;;;;;4926494;29;20111;-92
2021/10/06 21:20:43;;;;;;;11.00;1.77;;;13.20;99.90;;;;;;4920769;29;20135;-92
2021/10/06 21:23:09;;;;;;;9.13;1.73;;;13.10;99.90;;;;;;4903082;29;20039;-92
2021/10/06 21:25:35;;;;;;;7.45;2.13;;;13.10;99.90;;;;;;4924152;29;20811;-93
2021/10/06 21:28:01;;;;;;;6.38;2.08;;;13.10;99.90;;;;;;4905505;29;20103;-91
2021/10/06 21:30:28;;;;;;;7.40;2.00;;;13.10;99.90;;;;;;4907082;29;20054;-93
2021/10/06 21:32:54;;;;;;;7.95;2.53;;;13.10;99.90;;;;;;4930177;29;20032;-92
2021/10/06 21:35:21;;;;;;;10.98;2.50;;;13.10;99.90;;;;;;4904097;29;20024;-92
2021/10/06 21:37:46;;;;;;;5.88;2.50;;;13.10;99.90;;;;;;4923853;29;20030;-92
2021/10/06 21:40:16;;;;;;;8.32;2.80;;;13.00;99.90;;;;;;4930671;29;20472;-91
2021/10/06 21:42:42;;;;;;;8.77;2.25;;;13.00;99.90;;;;;;4925643;29;20028;-93
2021/10/06 21:45:12;;;;;;;7.35;2.78;;;13.00;99.90;;;;;;4927836;29;20048;-93
2021/10/06 21:47:38;;;;;;;10.25;2.88;;;13.00;99.90;;;;;;4921429;29;20028;-92
2021/10/06 21:50:04;;;;;;;12.15;3.05;;;13.00;99.90;;;;;;4933925;29;20095;-91
2021/10/06 21:52:30;;;;;;;6.32;2.78;;;13.00;99.90;;;;;;4917716;29;20020;-92
2021/10/06 21:54:56;;;;;;;7.03;2.80;;;12.90;99.90;;;;;;4935907;29;20442;-92
2021/10/06 21:57:22;;;;;;;8.20;2.85;;;12.90;99.90;;;;;;4936528;29;20057;-92
2021/10/06 21:59:47;;;;;;;11.30;3.13;;;12.90;99.90;;;;;;4922391;29;20111;-93
2021/10/06 22:02:13;;;;;;;7.18;2.92;;;12.80;99.90;;;;;;4925279;29;20067;-92
2021/10/06 22:04:39;;;;;;;6.45;2.92;;;12.80;99.90;;;;;;4925295;29;20050;-91
2021/10/06 22:07:04;;;;;;;8.55;3.17;;;12.80;99.90;;;;;;4937659;29;20028;-93
2021/10/06 22:09:30;;;;;;;6.88;2.67;;;12.80;99.90;;;;;;4940180;29;20028;-92
2021/10/06 22:11:56;;;;;;;13.45;3.08;;;12.70;99.90;;;;;;4949233;29;20039;-92
2021/10/06 22:14:26;;;;;;;6.38;2.97;;;12.70;99.90;;;;;;4946173;29;20035;-92
2021/10/06 22:16:52;;;;;;;5.43;2.70;;;12.70;99.90;;;;;;4948539;29;20027;-92
2021/10/06 22:19:18;;;;;;;8.75;2.55;;;12.70;99.90;;;;;;4948876;29;20267;-92
2021/10/06 22:21:44;;;;;;;12.60;2.83;;;12.70;99.90;;;;;;4921342;29;20063;-91
2021/10/06 22:24:11;;;;;;;11.40;2.83;;;12.70;99.90;;;;;;4933672;29;20058;-92
2021/10/06 22:26:36;;;;;;;7.35;2.72;;;12.70;99.90;;;;;;4937028;29;20028;-93
2021/10/06 22:29:03;;;;;;;6.10;2.90;;;12.70;99.90;;;;;;4927472;29;20083;-93
2021/10/06 22:31:29;;;;;;;6.30;2.75;;;12.60;99.90;;;;;;4927370;29;20482;-92
2021/10/06 22:33:56;;;;;;;4.95;2.60;;;12.60;99.90;;;;;;4922101;29;20043;-92
2021/10/06 22:36:22;;;;;;;8.43;2.60;;;12.60;99.90;;;;;;4906231;29;20032;-92
2021/10/06 22:38:49;;;;;;;11.10;3.45;;;12.60;99.90;;;;;;4921088;29;20494;-94
2021/10/06 22:41:17;;;;;;;9.75;3.10;;;12.60;99.90;;;;;;4933970;29;20067;-92
2021/10/06 22:43:43;;;;;;;7.18;3.05;;;12.60;99.90;;;;;;4927933;29;20035;-92
2021/10/06 22:46:09;;;;;;;9.07;2.78;;;12.60;99.90;;;;;;4913150;29;20063;-92
2021/10/06 22:48:36;;;;;;;10.77;3.13;;;12.60;99.90;;;;;;4931147;29;20559;-93
2021/10/06 22:51:02;;;;;;;6.18;2.55;;;12.60;99.90;;;;;;4918412;29;20023;-92
2021/10/06 22:53:27;;;;;;;11.45;2.47;;;12.60;99.90;;;;;;4916568;29;20040;-93
2021/10/06 22:55:53;;;;;;;8.27;3.28;;;12.60;99.90;;;;;;4940450;29;20083;-91
2021/10/06 22:58:19;;;;;;;12.55;3.20;;;12.70;99.90;;;;;;4939023;29;20048;-92
2021/10/06 23:00:44;;;;;;;7.32;3.00;;;12.60;99.90;;;;;;4920531;29;20020;-92
2021/10/06 23:03:10;;;;;;;6.25;2.42;;;12.70;99.90;;;;;;4919409;29;20496;-93
2021/10/06 23:05:36;;;;;;;9.00;2.70;;;12.70;99.90;;;;;;4935831;29;20143;-93
2021/10/06 23:08:01;;;;;;;6.38;2.55;;;12.70;99.90;;;;;;4938107;29;20032;-92
2021/10/06 23:10:27;;;;;;;9.75;2.95;;;12.70;99.90;;;;;;4939346;29;20115;-92
2021/10/06 23:12:53;;;;;;;8.48;2.17;;;12.70;99.90;;;;;;4921873;29;20032;-93
2021/10/06 23:15:19;;;;;;;7.10;3.00;;;12.60;99.90;;;;;;4922541;29;20039;-92
2021/10/06 23:17:45;;;;;;;5.90;2.05;;;12.70;99.90;;;;;;4938691;29;20028;-92
2021/10/06 23:20:11;;;;;;;8.90;2.40;;;12.60;99.90;;;;;;4922490;29;20122;-93
2021/10/06 23:22:37;;;;;;;5.90;2.35;;;12.60;99.90;;;;;;4922225;29;20057;-92
2021/10/06 23:25:03;;;;;;;4.63;2.30;;;12.60;99.90;;;;;;4921701;29;20481;-92
2021/10/06 23:27:29;;;;;;;8.85;2.22;;;12.60;99.90;;;;;;4921196;29;20520;-91
2021/10/06 23:29:55;;;;;;;9.15;2.28;;;12.60;99.90;;;;;;4922516;29;20059;-91
2021/10/06 23:32:20;;;;;;;7.18;2.25;;;12.60;99.90;;;;;;4922358;29;20023;-92
2021/10/06 23:34:46;;;;;;;5.95;1.95;;;12.70;99.90;;;;;;4922129;29;20486;-92
2021/10/06 23:37:12;;;;;;;6.32;2.33;;;12.70;99.90;;;;;;4938848;29;20050;-92
2021/10/06 23:39:38;;;;;;;7.25;2.40;;;12.70;99.90;;;;;;4939042;29;20031;-91
2021/10/06 23:42:04;;;;;;;9.57;2.33;;;12.70;99.90;;;;;;4939037;29;20062;-93
2021/10/06 23:44:29;;;;;;;6.35;2.40;;;12.70;99.90;;;;;;4937562;29;20498;-91
2021/10/06 23:46:55;;;;;;;7.93;2.70;;;12.70;99.90;;;;;;4938966;29;20537;-92
2021/10/06 23:49:21;;;;;;;8.80;3.28;;;12.70;99.90;;;;;;4921750;29;20402;-92
2021/10/06 23:51:47;;;;;;;12.43;2.30;;;12.70;99.90;;;;;;4921706;29;20028;-92
2021/10/06 23:54:12;;;;;;;8.65;2.85;;;12.70;99.90;;;;;;4938922;29;20036;-91
2021/10/06 23:56:38;;;;;;;5.55;2.28;;;12.70;99.90;;;;;;4921752;29;20055;-93
2021/10/06 23:59:04;;;;;;;10.25;2.90;;;12.70;99.90;;;;;;4921705;29;20031;-92
